Pilot Point, Alaska
Current Conditions -  °F | °C
As of 5:56 AM on Wednesday 26 Nov 2014 (Local Time) from PAPN Reporting Station
Clear Clear  
Wind Chill: 22°   Ceiling: Unl
Heat Index: 30°   Visibility: 10mi
Dew Point: 29°   Wind: 8mph
Humidity: 96%   Direction: 90°E
Pressure: 30.27"   Gusts: NA
Location:  57.56°N, 157.58°W
Report Text: PAPN 261456Z AUTO 09007KT 10SM CLR M01/M02 A3027 RMK AO2 PWINO TSNO 56004 T10111016 SLP252 $
Loading
Personal Weather Stations






























Interactive Weather Map New forecast layout! Learn more

10-Day Weather Forecast

Advertisements
Track Severe Weather on mobile